Aviation Digital Data Service (ADDS)

Output produced by TAFs form (0211 UTC 24 November 2017)
found at http://www.aviationweather.gov/adds/tafs/
 
EGPK 240150Z 28008KT 9999 SCT025 02/01 Q1003
TAF EGPK 232303Z 2400/2424 26009KT 9999 FEW020 SCT030 
     TEMPO 2400/2424 6000 SHRA BKN012 
     PROB30 
     TEMPO 2409/2424 2000 +SHRASN BKN004